createdAt,value
2017-12-13T00:01:04.690Z,4.53
2017-12-13T00:03:33.848Z,4.59
2017-12-13T00:06:04.483Z,4.69
2017-12-13T00:08:33.716Z,4.43
2017-12-13T00:11:03.203Z,4.49
2017-12-13T00:13:33.268Z,4.52
2017-12-13T00:16:03.080Z,4.52
2017-12-13T00:18:32.349Z,4.56
2017-12-13T00:21:01.873Z,4.61
2017-12-13T00:23:31.046Z,4.64
2017-12-13T00:26:00.334Z,4.56
2017-12-13T00:28:29.814Z,4.52
2017-12-13T00:30:58.967Z,4.52
2017-12-13T00:33:28.107Z,4.31
2017-12-13T00:35:57.485Z,4.37
2017-12-13T00:38:26.771Z,4.41
2017-12-13T00:40:55.878Z,4.42
2017-12-13T00:43:25.248Z,4.30
2017-12-13T00:45:54.372Z,4.31
2017-12-13T00:48:23.471Z,4.21
2017-12-13T00:50:53.263Z,4.12
2017-12-13T00:53:22.414Z,4.12
2017-12-13T00:55:51.524Z,3.99
2017-12-13T00:58:21.002Z,4.00
2017-12-13T01:00:50.331Z,3.96
2017-12-13T01:03:19.584Z,3.98
2017-12-13T01:05:48.985Z,4.00
2017-12-13T01:08:18.123Z,4.05
2017-12-13T01:10:47.206Z,4.13
2017-12-13T01:13:16.815Z,4.15
2017-12-13T01:15:45.924Z,4.17
2017-12-13T01:18:15.031Z,4.22
2017-12-13T01:20:44.439Z,4.28
2017-12-13T01:23:13.699Z,4.22
2017-12-13T01:25:43.441Z,4.24
2017-12-13T01:28:12.844Z,4.28
2017-12-13T01:30:41.971Z,4.29
2017-12-13T01:33:11.101Z,4.33
2017-12-13T01:35:45.656Z,4.38
2017-12-13T01:38:14.781Z,4.31
2017-12-13T01:40:44.135Z,4.25
2017-12-13T01:43:13.282Z,4.33
2017-12-13T01:45:42.360Z,4.27
2017-12-13T01:48:12.331Z,4.21
2017-12-13T01:50:41.427Z,4.20
2017-12-13T01:53:10.531Z,4.20
2017-12-13T01:55:39.950Z,4.18
2017-12-13T01:58:09.095Z,4.13
2017-12-13T02:00:38.193Z,4.09
2017-12-13T02:03:07.649Z,3.98
2017-12-13T02:05:37.128Z,3.99
2017-12-13T02:08:06.336Z,3.92
2017-12-13T02:10:35.784Z,3.83
2017-12-13T02:13:05.015Z,3.87
2017-12-13T02:15:34.139Z,3.82
2017-12-13T02:18:04.910Z,3.82
2017-12-13T02:20:34.587Z,3.78
2017-12-13T02:23:03.990Z,3.75
2017-12-13T02:25:33.534Z,3.70
2017-12-13T02:28:04.419Z,3.72
2017-12-13T02:30:34.125Z,3.68
2017-12-13T02:33:03.668Z,3.67
2017-12-13T02:35:32.913Z,3.67
2017-12-13T02:38:03.382Z,3.74
2017-12-13T02:40:42.517Z,3.75
2017-12-13T02:43:11.605Z,3.82
2017-12-13T02:45:41.027Z,3.78
2017-12-13T02:48:10.111Z,3.79
2017-12-13T02:50:39.214Z,3.75
2017-12-13T02:53:08.612Z,3.76
2017-12-13T02:55:37.769Z,3.73
2017-12-13T02:58:07.075Z,3.67
2017-12-13T03:00:36.476Z,3.64
2017-12-13T03:03:05.626Z,3.65
2017-12-13T03:05:34.724Z,3.64
2017-12-13T03:08:05.584Z,3.65
2017-12-13T03:10:34.770Z,3.64
2017-12-13T03:13:04.291Z,3.65
2017-12-13T03:15:34.106Z,3.63
2017-12-13T03:18:03.974Z,3.62
2017-12-13T03:20:33.267Z,3.59
2017-12-13T03:23:02.812Z,3.57
2017-12-13T03:25:32.130Z,3.52
2017-12-13T03:28:02.438Z,3.52
2017-12-13T03:30:32.271Z,3.54
2017-12-13T03:33:01.612Z,3.51
2017-12-13T03:35:30.911Z,3.50
2017-12-13T03:38:00.296Z,3.49
2017-12-13T03:40:29.400Z,3.48
2017-12-13T03:42:58.492Z,3.49
2017-12-13T03:45:27.935Z,3.48
2017-12-13T03:47:57.112Z,3.44
2017-12-13T03:50:26.255Z,3.48
2017-12-13T03:52:55.636Z,3.45
2017-12-13T03:55:24.740Z,3.52
2017-12-13T03:57:53.850Z,3.41
2017-12-13T04:00:23.347Z,3.40
2017-12-13T04:02:52.460Z,3.43
2017-12-13T04:05:21.570Z,3.40
2017-12-13T04:07:50.985Z,3.46
2017-12-13T04:10:20.186Z,3.44
2017-12-13T04:12:49.343Z,3.42
2017-12-13T04:15:18.765Z,3.30
2017-12-13T04:17:47.923Z,3.38
2017-12-13T04:20:17.058Z,3.42
2017-12-13T04:22:46.488Z,3.38
2017-12-13T04:25:16.567Z,3.41
2017-12-13T04:27:45.672Z,3.42
2017-12-13T04:30:15.077Z,3.44
2017-12-13T04:32:44.186Z,3.43
2017-12-13T04:35:13.327Z,3.41
2017-12-13T04:37:42.767Z,3.46
2017-12-13T04:40:11.871Z,3.49
2017-12-13T04:42:40.973Z,3.52
2017-12-13T04:45:10.376Z,3.52
2017-12-13T04:47:39.517Z,3.61
2017-12-13T04:50:08.653Z,3.59
2017-12-13T04:52:38.102Z,3.60
2017-12-13T04:55:07.272Z,3.56
2017-12-13T04:57:36.544Z,3.50
2017-12-13T05:00:06.001Z,3.48
2017-12-13T05:02:35.148Z,3.51
2017-12-13T05:05:04.518Z,3.53
2017-12-13T05:07:34.110Z,3.48
2017-12-13T05:10:05.088Z,3.39
2017-12-13T05:12:34.533Z,3.45
2017-12-13T05:15:03.810Z,3.47
2017-12-13T05:17:33.276Z,3.50
2017-12-13T05:20:03.325Z,3.54
2017-12-13T05:22:32.632Z,3.49
2017-12-13T05:25:01.975Z,3.46
2017-12-13T05:27:31.424Z,3.43
2017-12-13T05:30:00.541Z,3.46
2017-12-13T05:32:29.684Z,3.49
2017-12-13T05:34:59.136Z,3.47
2017-12-13T05:37:28.316Z,3.48
2017-12-13T05:39:57.815Z,3.42
2017-12-13T05:42:27.445Z,3.42
2017-12-13T05:44:56.616Z,3.44
2017-12-13T05:47:25.778Z,3.43
2017-12-13T05:49:55.211Z,3.40
2017-12-13T05:52:24.316Z,3.39
2017-12-13T05:54:53.808Z,3.34
2017-12-13T05:57:23.297Z,3.37
2017-12-13T05:59:52.431Z,3.38
2017-12-13T06:02:21.603Z,3.39
2017-12-13T06:04:51.022Z,3.34
2017-12-13T06:07:20.186Z,3.25
2017-12-13T06:09:49.330Z,3.34
2017-12-13T06:12:18.824Z,3.38
2017-12-13T06:14:47.984Z,3.41
2017-12-13T06:17:17.139Z,3.42
2017-12-13T06:19:46.558Z,3.41
2017-12-13T06:22:15.718Z,3.38
2017-12-13T06:24:44.827Z,3.41
2017-12-13T06:27:14.261Z,3.39
2017-12-13T06:29:43.370Z,3.40
2017-12-13T06:32:13.085Z,3.41
2017-12-13T06:34:43.529Z,3.47
2017-12-13T06:37:12.703Z,3.46
2017-12-13T06:39:41.934Z,3.39
2017-12-13T06:42:11.379Z,3.42
2017-12-13T06:44:40.511Z,3.34
2017-12-13T06:47:09.688Z,3.45
2017-12-13T06:49:39.087Z,3.36
2017-12-13T06:52:08.219Z,3.30
2017-12-13T06:54:37.359Z,3.37
2017-12-13T06:57:07.807Z,3.44
2017-12-13T06:59:37.505Z,3.48
2017-12-13T07:02:06.678Z,3.47
2017-12-13T07:04:36.122Z,3.48
2017-12-13T07:07:05.374Z,3.45
2017-12-13T07:10:05.071Z,3.46
2017-12-13T07:12:34.554Z,3.34
2017-12-13T07:15:03.939Z,3.41
2017-12-13T07:17:33.840Z,3.46
2017-12-13T07:20:05.175Z,3.52
2017-12-13T07:22:34.346Z,3.55
2017-12-13T07:25:03.645Z,3.53
2017-12-13T07:27:33.297Z,3.55
2017-12-13T07:30:03.285Z,3.51
2017-12-13T07:32:32.685Z,3.55
2017-12-13T07:35:02.315Z,3.35
2017-12-13T07:37:31.538Z,3.52
2017-12-13T07:40:00.703Z,3.48
2017-12-13T07:42:30.296Z,3.57
2017-12-13T07:44:59.439Z,3.40
2017-12-13T07:47:28.555Z,3.50
2017-12-13T07:49:58.038Z,3.41
2017-12-13T07:52:27.144Z,3.55
2017-12-13T07:54:56.326Z,3.69
2017-12-13T07:57:25.788Z,4.25
2017-12-13T07:59:54.987Z,4.85
2017-12-13T08:02:24.134Z,4.92
2017-12-13T08:04:53.661Z,4.78
2017-12-13T08:07:22.870Z,4.64
2017-12-13T08:09:52.882Z,4.20
2017-12-13T08:12:22.319Z,4.31
2017-12-13T08:14:51.472Z,4.36
2017-12-13T08:17:20.624Z,4.51
2017-12-13T08:19:50.035Z,4.12
2017-12-13T08:22:19.208Z,4.31
2017-12-13T08:24:48.327Z,4.48
2017-12-13T08:27:17.781Z,4.26
2017-12-13T08:29:46.919Z,4.38
2017-12-13T08:32:16.116Z,4.24
2017-12-13T08:34:46.546Z,4.29
2017-12-13T08:37:15.842Z,4.40
2017-12-13T08:39:44.996Z,4.60
2017-12-13T08:42:14.464Z,4.68
2017-12-13T08:44:43.648Z,4.71
2017-12-13T08:47:12.831Z,4.55
2017-12-13T08:49:43.328Z,5.08
2017-12-13T08:52:12.516Z,5.39
2017-12-13T08:54:41.751Z,5.07
2017-12-13T08:57:11.377Z,5.24
2017-12-13T08:59:40.535Z,5.37
2017-12-13T09:02:09.835Z,5.37
2017-12-13T09:04:39.362Z,5.41
2017-12-13T09:07:08.696Z,5.49
2017-12-13T09:09:37.902Z,5.30
2017-12-13T09:12:07.389Z,5.40
2017-12-13T09:14:36.854Z,4.99
2017-12-13T09:17:06.137Z,5.26
2017-12-13T09:19:35.607Z,5.16
2017-12-13T09:22:06.356Z,5.11
2017-12-13T09:24:35.615Z,5.15
2017-12-13T09:27:05.276Z,5.25
2017-12-13T09:29:34.536Z,5.75
2017-12-13T09:32:04.451Z,6.03
2017-12-13T09:34:34.796Z,5.90
2017-12-13T09:37:05.108Z,6.30
2017-12-13T09:39:34.390Z,5.99
2017-12-13T09:42:04.779Z,6.43
2017-12-13T09:44:34.933Z,7.05
2017-12-13T09:47:04.526Z,7.57
2017-12-13T09:49:34.293Z,8.19
2017-12-13T09:52:06.985Z,8.44
2017-12-13T09:54:39.135Z,9.77
2017-12-13T09:57:08.912Z,9.54
2017-12-13T09:59:38.187Z,12.00
2017-12-13T10:02:07.948Z,12.11
2017-12-13T10:04:38.976Z,11.87
2017-12-13T10:07:08.550Z,12.20
2017-12-13T10:09:38.691Z,12.01
2017-12-13T10:12:08.222Z,14.17
2017-12-13T10:14:37.512Z,15.64
2017-12-13T10:17:07.250Z,14.20
2017-12-13T10:19:37.792Z,15.20
2017-12-13T10:22:07.055Z,18.70
2017-12-13T10:24:37.207Z,18.54
2017-12-13T10:27:06.719Z,20.75
2017-12-13T10:29:35.844Z,17.64
2017-12-13T10:32:06.097Z,15.15
2017-12-13T10:34:35.261Z,15.80
2017-12-13T10:37:04.898Z,12.48
2017-12-13T10:39:34.424Z,11.28
2017-12-13T10:42:04.752Z,9.87
2017-12-13T10:44:34.059Z,9.28
2017-12-13T10:47:03.761Z,9.18
2017-12-13T10:49:33.328Z,9.16
2017-12-13T10:55:04.211Z,8.71
2017-12-13T10:57:33.572Z,8.96
2017-12-13T11:00:04.669Z,8.15
2017-12-13T11:02:34.378Z,8.83
2017-12-13T11:05:03.726Z,8.97
2017-12-13T11:07:33.092Z,8.95
2017-12-13T11:10:04.810Z,8.76
2017-12-13T11:12:39.561Z,8.82
2017-12-13T11:15:08.938Z,7.83
2017-12-13T11:17:38.074Z,8.30
2017-12-13T11:20:07.366Z,8.02
2017-12-13T11:22:37.006Z,7.75
2017-12-13T11:25:06.273Z,8.09
2017-12-13T11:27:35.729Z,8.12
2017-12-13T11:30:05.844Z,8.30
2017-12-13T11:32:34.987Z,8.29
2017-12-13T11:35:04.279Z,8.38
2017-12-13T11:37:34.091Z,7.80
2017-12-13T11:40:04.504Z,7.75
2017-12-13T11:42:34.270Z,8.01
2017-12-13T11:45:03.801Z,7.94
2017-12-13T11:47:33.263Z,7.97
2017-12-13T11:50:04.172Z,7.77
2017-12-13T11:52:33.815Z,7.75
2017-12-13T11:55:03.172Z,7.66
2017-12-13T11:57:32.542Z,7.34
2017-12-13T12:00:02.719Z,7.61
2017-12-13T12:02:32.556Z,7.57
2017-12-13T12:05:02.505Z,7.51
2017-12-13T12:07:32.078Z,7.42
2017-12-13T12:10:01.262Z,7.63
2017-12-13T12:12:30.471Z,7.77
2017-12-13T12:15:00.083Z,7.81
2017-12-13T12:17:29.266Z,7.83
2017-12-13T12:19:58.474Z,7.54
2017-12-13T12:22:28.056Z,7.67
2017-12-13T12:24:57.342Z,7.52
2017-12-13T12:27:26.632Z,7.52
2017-12-13T12:29:56.065Z,7.55
2017-12-13T12:32:25.207Z,7.36
2017-12-13T12:34:54.356Z,7.52
2017-12-13T12:37:23.875Z,7.53
2017-12-13T12:39:53.016Z,7.54
2017-12-13T12:42:22.137Z,7.54
2017-12-13T12:44:51.575Z,7.54
2017-12-13T12:47:20.719Z,7.56
2017-12-13T12:49:50.690Z,7.64
2017-12-13T12:52:20.097Z,7.57
2017-12-13T12:54:49.374Z,7.51
2017-12-13T12:57:18.508Z,7.43
2017-12-13T12:59:47.950Z,7.60
2017-12-13T13:02:17.104Z,7.48
2017-12-13T13:04:46.235Z,7.53
2017-12-13T13:07:15.667Z,7.56
2017-12-13T13:09:44.793Z,7.66
2017-12-13T13:12:13.896Z,7.59
2017-12-13T13:14:43.356Z,7.53
2017-12-13T13:17:12.518Z,7.69
2017-12-13T13:19:41.811Z,7.59
2017-12-13T13:22:11.272Z,7.54
2017-12-13T13:24:40.455Z,7.38
2017-12-13T13:27:09.575Z,7.60
2017-12-13T13:29:39.008Z,7.44
2017-12-13T13:32:08.161Z,7.58
2017-12-13T13:34:37.899Z,7.34
2017-12-13T13:37:07.365Z,6.72
2017-12-13T13:39:36.555Z,6.58
2017-12-13T13:42:06.397Z,6.45
2017-12-13T13:44:35.840Z,6.79
2017-12-13T13:47:05.269Z,6.61
2017-12-13T13:49:34.443Z,6.60
2017-12-13T13:52:04.811Z,6.55
2017-12-13T13:54:34.860Z,6.10
2017-12-13T13:57:04.553Z,5.96
2017-12-13T13:59:34.750Z,5.87
2017-12-13T14:02:05.461Z,5.78
2017-12-13T14:04:35.128Z,5.66
2017-12-13T14:07:04.614Z,5.86
2017-12-13T14:09:33.926Z,5.52
2017-12-13T14:12:04.022Z,5.37
2017-12-13T14:14:33.592Z,5.68
2017-12-13T14:17:03.471Z,5.86
2017-12-13T14:19:33.014Z,5.62
2017-12-13T14:22:03.495Z,5.59
2017-12-13T14:24:33.354Z,5.69
2017-12-13T14:27:02.685Z,5.66
2017-12-13T14:29:32.154Z,5.67
2017-12-13T14:32:03.429Z,5.64
2017-12-13T14:34:32.739Z,5.61
2017-12-13T14:37:02.673Z,5.52
2017-12-13T14:39:31.962Z,5.55
2017-12-13T14:42:01.184Z,5.57
2017-12-13T14:44:31.080Z,5.52
2017-12-13T14:47:00.582Z,5.37
2017-12-13T14:49:29.706Z,5.38
2017-12-13T14:52:13.811Z,5.44
2017-12-13T14:54:42.924Z,5.35
2017-12-13T14:57:12.327Z,5.34
2017-12-13T14:59:41.445Z,5.07
2017-12-13T15:02:11.957Z,5.18
2017-12-13T15:04:41.127Z,5.24
2017-12-13T15:07:10.579Z,5.36
2017-12-13T15:09:39.774Z,5.31
2017-12-13T15:12:09.205Z,5.18
2017-12-13T15:14:38.341Z,5.15
2017-12-13T15:17:07.454Z,5.31
2017-12-13T15:19:37.093Z,5.32
2017-12-13T15:22:06.404Z,4.98
2017-12-13T15:24:36.261Z,5.04
2017-12-13T15:27:05.975Z,5.24
2017-12-13T15:29:36.270Z,5.09
2017-12-13T15:32:05.488Z,4.80
2017-12-13T15:34:36.898Z,4.74
2017-12-13T15:37:07.854Z,4.89
2017-12-13T15:39:37.143Z,4.95
2017-12-13T15:42:07.801Z,4.88
2017-12-13T15:44:37.637Z,5.05
2017-12-13T15:47:06.794Z,5.04
2017-12-13T15:49:36.263Z,4.98
2017-12-13T15:52:06.628Z,4.96
2017-12-13T15:54:35.728Z,4.92
2017-12-13T15:57:05.191Z,5.02
2017-12-13T15:59:34.676Z,4.85
2017-12-13T16:02:04.556Z,4.97
2017-12-13T16:04:34.203Z,4.90
2017-12-13T16:07:04.033Z,4.72
2017-12-13T16:09:33.422Z,4.79
2017-12-13T16:12:04.887Z,4.72
2017-12-13T16:14:34.464Z,4.85
2017-12-13T16:17:04.620Z,4.75
2017-12-13T16:19:34.547Z,4.83
2017-12-13T16:22:05.045Z,4.71
2017-12-13T16:24:34.385Z,4.64
2017-12-13T16:27:04.373Z,4.72
2017-12-13T16:29:33.777Z,4.77
2017-12-13T16:32:03.817Z,4.71
2017-12-13T16:34:33.519Z,4.78
2017-12-13T16:37:03.802Z,4.97
2017-12-13T16:39:33.158Z,5.08
2017-12-13T16:42:03.378Z,5.08
2017-12-13T16:44:32.764Z,5.00
2017-12-13T16:47:02.764Z,4.95
2017-12-13T16:49:32.544Z,4.99
2017-12-13T16:52:03.827Z,4.93
2017-12-13T16:54:33.927Z,5.05
2017-12-13T16:57:03.985Z,5.08
2017-12-13T16:59:34.952Z,5.15
2017-12-13T17:02:06.068Z,5.13
2017-12-13T17:04:35.589Z,4.93
2017-12-13T17:07:04.886Z,5.12
2017-12-13T17:09:34.202Z,4.98
2017-12-13T17:12:04.268Z,5.15
2017-12-13T17:14:34.275Z,5.11
2017-12-13T17:17:04.235Z,4.96
2017-12-13T17:19:33.953Z,5.05
2017-12-13T17:22:04.003Z,5.06
2017-12-13T17:24:33.260Z,5.20
2017-12-13T17:27:03.500Z,5.25
2017-12-13T17:29:32.773Z,5.31
2017-12-13T17:32:02.785Z,5.28
2017-12-13T17:34:32.295Z,5.46
2017-12-13T17:37:01.504Z,5.51
2017-12-13T17:39:30.705Z,5.47
2017-12-13T17:42:00.234Z,5.43
2017-12-13T17:44:29.425Z,5.57
2017-12-13T17:46:58.538Z,5.64
2017-12-13T17:49:28.260Z,5.61
2017-12-13T17:51:57.425Z,5.63
2017-12-13T17:54:26.649Z,5.62
2017-12-13T17:56:56.120Z,5.77
2017-12-13T17:59:25.307Z,5.86
2017-12-13T18:01:54.850Z,5.73
2017-12-13T18:04:24.627Z,5.72
2017-12-13T18:06:54.148Z,5.92
2017-12-13T18:09:23.313Z,5.84
2017-12-13T18:11:52.815Z,5.74
2017-12-13T18:14:21.945Z,5.89
2017-12-13T18:16:51.158Z,5.86
2017-12-13T18:19:20.990Z,5.96
2017-12-13T18:21:50.327Z,6.03
2017-12-13T18:24:19.549Z,6.02
2017-12-13T18:26:49.434Z,5.86
2017-12-13T18:29:21.530Z,6.05
2017-12-13T18:31:51.474Z,5.99
2017-12-13T18:34:21.343Z,5.88
2017-12-13T18:36:50.718Z,6.04
2017-12-13T18:39:22.244Z,6.04
2017-12-13T18:41:52.083Z,5.96
2017-12-13T18:44:21.368Z,5.85
2017-12-13T18:46:51.630Z,5.93
2017-12-13T18:49:21.117Z,5.97
2017-12-13T18:51:50.434Z,6.08
2017-12-13T18:54:20.125Z,6.07
2017-12-13T18:56:50.357Z,6.13
2017-12-13T18:59:20.437Z,6.06
2017-12-13T19:01:50.859Z,6.02
2017-12-13T19:04:20.176Z,6.08
2017-12-13T19:06:49.526Z,6.31
2017-12-13T19:09:19.298Z,6.37
2017-12-13T19:11:48.565Z,6.31
2017-12-13T19:14:17.756Z,6.35
2017-12-13T19:16:48.264Z,6.47
2017-12-13T19:21:47.992Z,6.46
2017-12-13T19:24:17.303Z,6.39
2017-12-13T19:26:46.852Z,6.53
2017-12-13T19:29:16.952Z,6.51
2017-12-13T19:31:46.756Z,6.53
2017-12-13T19:34:16.874Z,6.54
2017-12-13T19:36:46.225Z,6.56
2017-12-13T19:39:15.644Z,6.62
2017-12-13T19:41:46.968Z,6.64
2017-12-13T19:44:16.236Z,6.44
2017-12-13T19:46:45.946Z,6.59
2017-12-13T19:49:15.404Z,6.68
2017-12-13T19:51:44.693Z,6.60
2017-12-13T19:54:14.190Z,6.68
2017-12-13T19:56:43.640Z,6.67
2017-12-13T19:59:13.109Z,6.63
2017-12-13T20:01:42.198Z,6.56
2017-12-13T20:04:11.597Z,6.64
2017-12-13T20:06:41.320Z,6.65
2017-12-13T20:09:11.205Z,6.57
2017-12-13T20:11:41.953Z,6.60
2017-12-13T20:14:11.150Z,6.73
2017-12-13T20:16:41.131Z,6.77
2017-12-13T20:19:11.758Z,6.85
2017-12-13T20:21:41.187Z,6.86
2017-12-13T20:24:10.348Z,6.84
2017-12-13T20:26:39.837Z,6.77
2017-12-13T20:29:09.122Z,6.74
2017-12-13T20:31:39.177Z,6.69
2017-12-13T20:34:09.816Z,6.74
2017-12-13T20:36:39.211Z,6.77
2017-12-13T20:39:08.803Z,6.83
2017-12-13T20:41:39.577Z,6.68
2017-12-13T20:44:09.422Z,6.76
2017-12-13T20:46:38.587Z,6.76
2017-12-13T20:49:10.414Z,6.78
2017-12-13T20:51:39.924Z,6.80
2017-12-13T20:54:09.699Z,6.79
2017-12-13T20:56:39.898Z,6.91
2017-12-13T20:59:10.574Z,6.93
2017-12-13T21:01:39.990Z,6.83
2017-12-13T21:04:09.606Z,6.76
2017-12-13T21:06:39.976Z,6.81
2017-12-13T21:09:11.016Z,6.82
2017-12-13T21:11:40.986Z,6.84
2017-12-13T21:14:10.518Z,6.82
2017-12-13T21:16:39.772Z,6.83
2017-12-13T21:19:09.244Z,6.95
2017-12-13T21:21:38.712Z,6.91
2017-12-13T21:24:08.053Z,6.88
2017-12-13T21:26:37.714Z,7.05
2017-12-13T21:29:08.636Z,7.09
2017-12-13T21:31:37.853Z,7.12
2017-12-13T21:34:07.374Z,6.95
2017-12-13T21:36:36.514Z,7.01
2017-12-13T21:39:06.020Z,7.14
2017-12-13T21:41:36.060Z,7.06
2017-12-13T21:44:07.375Z,7.14
2017-12-13T21:46:36.803Z,7.22
2017-12-13T21:49:06.391Z,7.23
2017-12-13T21:51:36.200Z,7.14
2017-12-13T21:54:09.706Z,7.21
2017-12-13T21:56:39.218Z,7.15
2017-12-13T21:59:08.432Z,7.19
2017-12-13T22:01:38.896Z,7.15
2017-12-13T22:04:08.880Z,7.22
2017-12-13T22:06:38.151Z,7.17
2017-12-13T22:09:07.413Z,7.31
2017-12-13T22:11:36.952Z,7.26
2017-12-13T22:14:06.336Z,7.29
2017-12-13T22:16:35.492Z,7.34
2017-12-13T22:19:04.993Z,7.30
2017-12-13T22:21:34.611Z,7.37
2017-12-13T22:24:04.366Z,7.25
2017-12-13T22:26:33.888Z,7.24
2017-12-13T22:29:03.416Z,7.22
2017-12-13T22:31:32.672Z,7.32
2017-12-13T22:34:03.203Z,7.25
2017-12-13T22:36:32.618Z,7.28
2017-12-13T22:39:02.403Z,7.26
2017-12-13T22:41:32.104Z,7.33
2017-12-13T22:44:02.866Z,7.27
2017-12-13T22:46:32.074Z,7.32
2017-12-13T22:49:01.791Z,7.35
2017-12-13T22:51:30.965Z,7.39
2017-12-13T22:54:00.103Z,7.43
2017-12-13T22:56:29.536Z,7.51
2017-12-13T22:58:58.696Z,7.38
2017-12-13T23:01:27.812Z,7.42
2017-12-13T23:03:57.190Z,7.49
2017-12-13T23:06:26.264Z,7.52
2017-12-13T23:08:55.719Z,7.52
2017-12-13T23:11:25.131Z,7.53
2017-12-13T23:13:54.735Z,7.34
2017-12-13T23:16:24.030Z,7.54
2017-12-13T23:18:53.499Z,7.48
2017-12-13T23:21:22.610Z,7.63
2017-12-13T23:23:51.751Z,7.53
2017-12-13T23:26:21.135Z,7.52
2017-12-13T23:28:50.422Z,7.54
2017-12-13T23:31:19.596Z,7.65
2017-12-13T23:33:48.994Z,7.61
2017-12-13T23:36:18.090Z,7.75
2017-12-13T23:38:47.483Z,7.66
2017-12-13T23:41:16.917Z,7.78
2017-12-13T23:43:46.124Z,7.63
2017-12-13T23:46:15.294Z,7.72
2017-12-13T23:48:44.718Z,7.72
2017-12-13T23:51:13.895Z,7.71
2017-12-13T23:53:43.036Z,7.71
2017-12-13T23:56:12.441Z,7.62
2017-12-13T23:58:41.639Z,7.63
